Language selection

My Weather Profile Weather Topics  | 

East Labrador Sea - northern half: Past 24 Hour Conditions

 

Hopedale

09:00 PM ADT 12 May 2021
Disclaimer

This table is a summary of hourly weather conditions for the past 24 hours.
Please note that these observations might not always be representative of weather conditions over their associated marine area.

Date / Time
(ADT)
Wind(knots) Conditions Visibility(km) Pressure(kPa) Air tempC) Relative humidity(%) Dew pointC)
12 May 2021
21:00 10 gust 15 N/A N/A 101.6 1 95 1
20:00 12 gust 18 N/A N/A 101.6 1 93 0
19:00 11 gust 17 N/A N/A 101.6 1 92 0
18:00 11 gust 23 N/A N/A 101.7 2 90 0
17:00 13 gust 18 N/A N/A 101.7 2 88 0
16:00 10 gust 16 N/A N/A 101.7 2 87 1
15:00 12 gust 17 N/A N/A 101.7 3 87 1
14:00 11 gust 21 N/A N/A 101.7 2 88 1
13:00 15 N/A N/A 101.7 3 89 1
12:00 14 gust 29 N/A N/A 101.7 2 91 1
11:00 10 gust 17 N/A N/A 101.7 2 93 1
10:00 15 N/A N/A 101.7 2 94 1
9:00 13 gust 20 N/A N/A 101.7 2 96 1
8:00 14 gust 19 N/A N/A 101.7 2 96 1
7:00 13 gust 19 N/A N/A 101.7 2 97 1
6:00 13 gust 20 N/A N/A 101.7 2 97 1
5:00 14 N/A N/A 101.7 2 97 1
4:00 12 gust 18 N/A N/A 101.7 2 98 1
3:00 13 gust 19 N/A N/A 101.7 2 98 1
2:00 14 N/A N/A 101.7 2 97 1
1:00 15 gust 21 N/A N/A 101.7 2 96 1
0:00 13 gust 19 N/A N/A 101.7 2 96 1
11 May 2021
23:00 13 gust 28 N/A N/A 101.8 2 96 1
22:00 10 gust 16 N/A N/A 101.8 2 97 1
21:00 13 gust 19 N/A N/A 101.8 1 97 1

Zoom-in to make a selection

Map of Atlantic - Labrador marine weather areas Kangiqsualujjuaq Airport Cape Kakkiviak Cape Kiglapait Cartwright Airport CFB Goose Bay Hopedale Mary's Harbour Nain Airport Makkovik Airport Saglek Tukialik Bay
Legend:
buoy Buoy
land station Land Station

Atlantic - Labrador Area

Another Region

What we are doing

Date modified: